Time;durP1;ratioP1;P1;durP2;ratioP2;P2;SDS_P1;SDS_P2;PMS_P1;PMS_P2;Temp;Humidity;BMP_temperature;BMP_pressure;BME280_temperature;BME280_humidity;BME280_pressure;Samples;Min_cycle;Max_cycle;Signal;HPM_P1;HPM_P2
2019/09/18 00:00:46;;;;;;;14.35;9.800001;;;;;;;11.04;100;95705.49;;;;
2019/09/18 00:02:50;;;;;;;13.85;9.500002;;;;;;;11.01;100;95710.14;;;;
2019/09/18 00:03:51;;;;;;;13.85;9.500002;;;;;;;11.01;100;95710.14;;;;
2019/09/18 00:04:53;;;;;;;12.8;9.550001;;;;;;;10.97;100;95706.23;;;;
2019/09/18 00:05:55;;;;;;;12.8;9.550001;;;;;;;10.97;100;95706.23;;;;
2019/09/18 00:06:56;;;;;;;13.75;9.75;;;;;;;10.93;100;95700.87;;;;
2019/09/18 00:07:57;;;;;;;13.75;9.75;;;;;;;10.93;100;95700.87;;;;
2019/09/18 00:08:59;;;;;;;13.75;9.75;;;;;;;10.93;100;95700.87;;;;
2019/09/18 00:10:00;;;;;;;14.4;9.800001;;;;;;;10.9;100;95695.48;;;;
2019/09/18 00:11:03;;;;;;;14.4;9.800001;;;;;;;10.9;100;95695.48;;;;
2019/09/18 00:12:05;;;;;;;14.4;9.800001;;;;;;;10.9;100;95695.48;;;;
2019/09/18 00:13:07;;;;;;;12.05;9.25;;;;;;;10.88;100;95697.2;;;;
2019/09/18 00:14:08;;;;;;;12.05;9.25;;;;;;;10.88;100;95697.2;;;;
2019/09/18 00:15:09;;;;;;;14.35;10.3;;;;;;;10.84;100;95693.72;;;;
2019/09/18 00:16:12;;;;;;;14.35;10.3;;;;;;;10.84;100;95693.72;;;;
2019/09/18 00:17:28;;;;;;;14.35;10.3;;;;;;;10.84;100;95693.72;;;;
2019/09/18 00:18:30;;;;;;;13.9;9.799998;;;;;;;10.82;100;95696.23;;;;
2019/09/18 00:19:31;;;;;;;13.9;9.799998;;;;;;;10.82;100;95696.23;;;;
2019/09/18 00:20:33;;;;;;;12.35;9.549999;;;;;;;10.78;100;95698.67;;;;
2019/09/18 00:21:35;;;;;;;12.35;9.549999;;;;;;;10.78;100;95698.67;;;;
2019/09/18 00:22:37;;;;;;;12.35;9.549999;;;;;;;10.78;100;95698.67;;;;
2019/09/18 00:23:38;;;;;;;12.25;9.6;;;;;;;10.75;100;95696.44;;;;
2019/09/18 00:24:39;;;;;;;12.25;9.6;;;;;;;10.75;100;95696.44;;;;
2019/09/18 00:25:45;;;;;;;11.85;9.35;;;;;;;10.71;100;95700.62;;;;
2019/09/18 00:26:46;;;;;;;11.85;9.35;;;;;;;10.71;100;95700.62;;;;
2019/09/18 00:27:47;;;;;;;11.85;9.35;;;;;;;10.71;100;95700.62;;;;
2019/09/18 00:28:49;;;;;;;11.85;9.35;;;;;;;10.71;100;95700.62;;;;
2019/09/18 00:29:50;;;;;;;11.85;9.35;;;;;;;10.71;100;95700.62;;;;
2019/09/18 00:30:52;;;;;;;11.85;9.35;;;;;;;10.71;100;95700.62;;;;
2019/09/18 00:32:04;;;;;;;11.85;9.35;;;;;;;10.71;100;95700.62;;;;
2019/09/18 00:33:05;;;;;;;11.85;9.35;;;;;;;10.71;100;95700.62;;;;
2019/09/18 00:34:07;;;;;;;11.85;9.35;;;;;;;10.71;100;95700.62;;;;
2019/09/18 00:35:08;;;;;;;11.85;9.35;;;;;;;10.71;100;95700.62;;;;
2019/09/18 00:36:12;;;;;;;11.95;9.4;;;;;;;10.2;100;95701.92;;;;
2019/09/18 00:37:14;;;;;;;11.95;9.4;;;;;;;10.2;100;95701.92;;;;
2019/09/18 00:38:15;;;;;;;11.95;9.4;;;;;;;10.2;100;95701.92;;;;
2019/09/18 00:39:16;;;;;;;13.9;10.35;;;;;;;10.13;100;95704.28;;;;
2019/09/18 00:40:17;;;;;;;13.9;10.35;;;;;;;10.13;100;95704.28;;;;
2019/09/18 00:41:19;;;;;;;13.9;10.35;;;;;;;10.13;100;95704.28;;;;
2019/09/18 00:42:20;;;;;;;13.95;9.35;;;;;;;10.14;100;95700.65;;;;
2019/09/18 00:43:22;;;;;;;13.95;9.35;;;;;;;10.14;100;95700.65;;;;
2019/09/18 00:44:23;;;;;;;14.35;9.650002;;;;;;;10.14;100;95705.11;;;;
2019/09/18 00:45:24;;;;;;;14.35;9.650002;;;;;;;10.14;100;95705.11;;;;
2019/09/18 00:46:47;;;;;;;14.35;9.650002;;;;;;;10.14;100;95705.11;;;;
2019/09/18 00:47:48;;;;;;;14.35;9.650002;;;;;;;10.14;100;95705.11;;;;
2019/09/18 00:48:49;;;;;;;14.35;9.650002;;;;;;;10.14;100;95705.11;;;;
2019/09/18 00:49:50;;;;;;;14.35;9.650002;;;;;;;10.14;100;95705.11;;;;
2019/09/18 00:50:51;;;;;;;14.35;9.650002;;;;;;;10.14;100;95705.11;;;;
2019/09/18 00:51:52;;;;;;;14.35;9.650002;;;;;;;10.14;100;95705.11;;;;
2019/09/18 00:52:54;;;;;;;14.35;9.650002;;;;;;;10.14;100;95705.11;;;;
2019/09/18 00:53:56;;;;;;;14.35;9.650002;;;;;;;10.14;100;95705.11;;;;
2019/09/18 00:54:57;;;;;;;12.85;8.799999;;;;;;;9.76;100;95710.63;;;;
2019/09/18 00:55:58;;;;;;;12.85;8.799999;;;;;;;9.76;100;95710.63;;;;
2019/09/18 00:56:59;;;;;;;12.85;8.799999;;;;;;;9.76;100;95710.63;;;;
2019/09/18 00:58:01;;;;;;;12.6;9;;;;;;;9.73;100;95706.61;;;;
2019/09/18 00:59:02;;;;;;;12.6;9;;;;;;;9.73;100;95706.61;;;;
2019/09/18 01:00:04;;;;;;;12.6;9;;;;;;;9.73;100;95706.61;;;;
2019/09/18 01:01:06;;;;;;;12.6;9;;;;;;;9.73;100;95706.61;;;;
2019/09/18 01:02:37;;;;;;;12.6;9;;;;;;;9.73;100;95706.61;;;;
2019/09/18 01:03:39;;;;;;;12.6;9;;;;;;;9.73;100;95706.61;;;;
2019/09/18 01:04:40;;;;;;;12.6;9;;;;;;;9.73;100;95706.61;;;;
2019/09/18 01:05:42;;;;;;;12.6;9;;;;;;;9.73;100;95706.61;;;;
2019/09/18 01:06:44;;;;;;;12.6;9;;;;;;;9.73;100;95706.61;;;;
2019/09/18 01:07:45;;;;;;;12.6;9;;;;;;;9.73;100;95706.61;;;;
2019/09/18 01:08:46;;;;;;;13.3;8.299999;;;;;;;9.46;100;95714.47;;;;
2019/09/18 01:09:48;;;;;;;13.3;8.299999;;;;;;;9.46;100;95714.47;;;;
2019/09/18 01:10:49;;;;;;;14.3;9.1;;;;;;;9.47;100;95710.85;;;;
2019/09/18 01:11:50;;;;;;;14.3;9.1;;;;;;;9.47;100;95710.85;;;;
2019/09/18 01:12:52;;;;;;;14.3;9.1;;;;;;;9.47;100;95710.85;;;;
2019/09/18 01:13:53;;;;;;;12.5;8.6;;;;;;;9.51;100;95713.42;;;;
2019/09/18 01:14:54;;;;;;;12.5;8.6;;;;;;;9.51;100;95713.42;;;;
2019/09/18 01:15:56;;;;;;;13.7;8.9;;;;;;;9.55;100;95706.55;;;;
2019/09/18 01:16:57;;;;;;;13.7;8.9;;;;;;;9.55;100;95706.55;;;;
2019/09/18 01:17:59;;;;;;;13.7;8.9;;;;;;;9.55;100;95706.55;;;;
2019/09/18 01:19:00;;;;;;;13.7;8.9;;;;;;;9.55;100;95706.55;;;;
2019/09/18 01:20:02;;;;;;;13.7;8.9;;;;;;;9.55;100;95706.55;;;;
2019/09/18 01:21:04;;;;;;;13.7;8.9;;;;;;;9.55;100;95706.55;;;;
2019/09/18 01:22:05;;;;;;;13.7;8.9;;;;;;;9.55;100;95706.55;;;;
2019/09/18 01:23:07;;;;;;;13.7;8.9;;;;;;;9.55;100;95706.55;;;;
2019/09/18 01:25:07;;;;;;;13.7;8.9;;;;;;;9.55;100;95706.55;;;;
2019/09/18 01:26:25;;;;;;;13.7;8.9;;;;;;;9.55;100;95706.55;;;;
2019/09/18 01:27:30;;;;;;;9.549999;8.200001;;;;;;;9.28;100;95723.02;;;;
2019/09/18 01:28:36;;;;;;;9.549999;8.200001;;;;;;;9.28;100;95723.02;;;;
2019/09/18 01:29:37;;;;;;;10;8.350001;;;;;;;9.27;100;95723.52;;;;
2019/09/18 01:30:38;;;;;;;10;8.350001;;;;;;;9.27;100;95723.52;;;;
2019/09/18 01:31:41;;;;;;;10;8.350001;;;;;;;9.27;100;95723.52;;;;
2019/09/18 01:32:42;;;;;;;10;8.350001;;;;;;;9.27;100;95723.52;;;;
2019/09/18 01:33:43;;;;;;;10;8.350001;;;;;;;9.27;100;95723.52;;;;
2019/09/18 01:34:44;;;;;;;10;8.350001;;;;;;;9.27;100;95723.52;;;;
2019/09/18 01:35:46;;;;;;;10;8.350001;;;;;;;9.27;100;95723.52;;;;
2019/09/18 01:37:01;;;;;;;10;8.350001;;;;;;;9.27;100;95723.52;;;;
2019/09/18 01:38:02;;;;;;;10;8.350001;;;;;;;9.27;100;95723.52;;;;
2019/09/18 01:39:07;;;;;;;10;8.350001;;;;;;;9.27;100;95723.52;;;;
2019/09/18 01:40:09;;;;;;;10.65;8;;;;;;;9.1;100;95733.26;;;;
2019/09/18 01:41:12;;;;;;;10.65;8;;;;;;;9.1;100;95733.26;;;;
2019/09/18 01:42:13;;;;;;;11.25;8.15;;;;;;;9.11;100;95738.01;;;;
2019/09/18 01:43:15;;;;;;;11.25;8.15;;;;;;;9.11;100;95738.01;;;;
2019/09/18 01:44:16;;;;;;;11.25;8.15;;;;;;;9.11;100;95738.01;;;;
2019/09/18 01:45:17;;;;;;;11.05;8.050001;;;;;;;9.17;100;95746.09;;;;
2019/09/18 01:46:21;;;;;;;11.05;8.050001;;;;;;;9.17;100;95746.09;;;;
2019/09/18 01:47:22;;;;;;;11.05;8.050001;;;;;;;9.17;100;95746.09;;;;
2019/09/18 01:48:24;;;;;;;11.3;8.45;;;;;;;9.26;100;95748.92;;;;
2019/09/18 01:49:25;;;;;;;11.3;8.45;;;;;;;9.26;100;95748.92;;;;
2019/09/18 01:50:26;;;;;;;11.3;8.45;;;;;;;9.26;100;95748.92;;;;
2019/09/18 01:51:29;;;;;;;11.3;8.45;;;;;;;9.26;100;95748.92;;;;
2019/09/18 01:52:31;;;;;;;11.3;8.45;;;;;;;9.26;100;95748.92;;;;
2019/09/18 01:53:32;;;;;;;11.3;8.45;;;;;;;9.26;100;95748.92;;;;
2019/09/18 01:54:33;;;;;;;11.3;8.45;;;;;;;9.26;100;95748.92;;;;
2019/09/18 01:55:34;;;;;;;11.3;8.45;;;;;;;9.26;100;95748.92;;;;
2019/09/18 01:56:47;;;;;;;11.3;8.45;;;;;;;9.26;100;95748.92;;;;
2019/09/18 01:57:48;;;;;;;11.3;8.45;;;;;;;9.26;100;95748.92;;;;
2019/09/18 01:58:49;;;;;;;10.65;8.049999;;;;;;;9.24;100;95742.83;;;;
2019/09/18 01:59:51;;;;;;;10.65;8.049999;;;;;;;9.24;100;95742.83;;;;
2019/09/18 02:00:52;;;;;;;10.5;8.450001;;;;;;;9.3;100;95746.11;;;;
2019/09/18 02:01:53;;;;;;;10.5;8.450001;;;;;;;9.3;100;95746.11;;;;
2019/09/18 02:02:54;;;;;;;10.5;8.450001;;;;;;;9.3;100;95746.11;;;;
2019/09/18 02:03:56;;;;;;;10.5;8.450001;;;;;;;9.3;100;95746.11;;;;
2019/09/18 02:04:57;;;;;;;10.5;8.450001;;;;;;;9.3;100;95746.11;;;;
2019/09/18 02:05:58;;;;;;;10.5;8.450001;;;;;;;9.3;100;95746.11;;;;
2019/09/18 02:07:00;;;;;;;10.5;8.450001;;;;;;;9.3;100;95746.11;;;;
2019/09/18 02:08:01;;;;;;;10.5;8.450001;;;;;;;9.3;100;95746.11;;;;
2019/09/18 02:09:02;;;;;;;10.5;8.450001;;;;;;;9.3;100;95746.11;;;;
2019/09/18 02:10:08;;;;;;;10.5;8.450001;;;;;;;9.3;100;95746.11;;;;
2019/09/18 02:11:10;;;;;;;10.5;8.450001;;;;;;;9.3;100;95746.11;;;;
2019/09/18 02:12:12;;;;;;;12.05;8.6;;;;;;;9.24;100;95754.96;;;;
2019/09/18 02:15:13;;;;;;;12.05;7.7;;;;;;;9.26;100;95754.74;;;;
2019/09/18 02:16:15;;;;;;;12.05;7.7;;;;;;;9.26;100;95754.74;;;;
2019/09/18 02:17:17;;;;;;;12.05;7.7;;;;;;;9.26;100;95754.74;;;;
2019/09/18 02:18:18;;;;;;;12.05;7.7;;;;;;;9.26;100;95754.74;;;;
2019/09/18 02:19:19;;;;;;;12.05;7.7;;;;;;;9.26;100;95754.74;;;;
2019/09/18 02:20:20;;;;;;;12.05;7.7;;;;;;;9.26;100;95754.74;;;;
2019/09/18 02:21:23;;;;;;;12.05;7.7;;;;;;;9.26;100;95754.74;;;;
2019/09/18 02:22:24;;;;;;;12.05;7.7;;;;;;;9.26;100;95754.74;;;;
2019/09/18 02:23:25;;;;;;;12.05;7.7;;;;;;;9.26;100;95754.74;;;;
2019/09/18 02:24:26;;;;;;;13.35;8.4;;;;;;;9.17;100;95774.47;;;;
2019/09/18 02:25:28;;;;;;;13.35;8.4;;;;;;;9.17;100;95774.47;;;;
2019/09/18 02:26:29;;;;;;;13.35;8.4;;;;;;;9.17;100;95774.47;;;;
2019/09/18 02:27:30;;;;;;;13.35;8.4;;;;;;;9.17;100;95774.47;;;;
2019/09/18 02:28:32;;;;;;;13.35;8.4;;;;;;;9.17;100;95774.47;;;;
2019/09/18 02:29:33;;;;;;;13.35;8.4;;;;;;;9.17;100;95774.47;;;;
2019/09/18 02:30:34;;;;;;;13.35;8.4;;;;;;;9.17;100;95774.47;;;;
2019/09/18 02:32:38;;;;;;;13.35;8.4;;;;;;;9.17;100;95774.47;;;;
2019/09/18 02:33:39;;;;;;;13.35;8.4;;;;;;;9.17;100;95774.47;;;;
2019/09/18 02:34:41;;;;;;;13.35;8.4;;;;;;;9.17;100;95774.47;;;;
2019/09/18 02:35:42;;;;;;;15.25;9.049999;;;;;;;9.31;100;95773.77;;;;
2019/09/18 02:36:43;;;;;;;15.25;9.049999;;;;;;;9.31;100;95773.77;;;;
2019/09/18 02:37:44;;;;;;;15.25;9.049999;;;;;;;9.31;100;95773.77;;;;
2019/09/18 02:38:45;;;;;;;15.25;9.049999;;;;;;;9.31;100;95773.77;;;;
2019/09/18 02:39:47;;;;;;;15.25;9.049999;;;;;;;9.31;100;95773.77;;;;
2019/09/18 02:40:49;;;;;;;15.25;9.049999;;;;;;;9.31;100;95773.77;;;;
2019/09/18 02:41:50;;;;;;;15.25;9.049999;;;;;;;9.31;100;95773.77;;;;
2019/09/18 02:42:51;;;;;;;15.25;9.049999;;;;;;;9.31;100;95773.77;;;;
2019/09/18 02:43:52;;;;;;;15.25;9.049999;;;;;;;9.31;100;95773.77;;;;
2019/09/18 02:44:54;;;;;;;15.25;9.049999;;;;;;;9.31;100;95773.77;;;;
2019/09/18 02:45:55;;;;;;;12.6;8.699999;;;;;;;9.29;100;95778.96;;;;
2019/09/18 02:47:06;;;;;;;12.6;8.699999;;;;;;;9.29;100;95778.96;;;;
2019/09/18 02:48:07;;;;;;;12.6;8.699999;;;;;;;9.29;100;95778.96;;;;
2019/09/18 02:49:08;;;;;;;12.4;8.4;;;;;;;9.33;100;95778.42;;;;
2019/09/18 02:50:09;;;;;;;12.4;8.4;;;;;;;9.33;100;95778.42;;;;
2019/09/18 02:51:11;;;;;;;12.4;8.4;;;;;;;9.33;100;95778.42;;;;
2019/09/18 02:52:12;;;;;;;12.4;8.4;;;;;;;9.33;100;95778.42;;;;
2019/09/18 02:53:14;;;;;;;12.4;8.4;;;;;;;9.33;100;95778.42;;;;
2019/09/18 02:54:15;;;;;;;12.4;8.4;;;;;;;9.33;100;95778.42;;;;
2019/09/18 02:55:16;;;;;;;12.4;8.4;;;;;;;9.33;100;95778.42;;;;
2019/09/18 02:56:17;;;;;;;12.4;8.4;;;;;;;9.33;100;95778.42;;;;
2019/09/18 02:57:19;;;;;;;12.4;8.4;;;;;;;9.33;100;95778.42;;;;
2019/09/18 02:58:20;;;;;;;12.4;8.4;;;;;;;9.33;100;95778.42;;;;
2019/09/18 02:59:21;;;;;;;12.15;8.6;;;;;;;9.2;100;95780.25;;;;
2019/09/18 03:00:22;;;;;;;12.15;8.6;;;;;;;9.2;100;95780.25;;;;
2019/09/18 03:01:24;;;;;;;12.15;8.6;;;;;;;9.2;100;95780.25;;;;
2019/09/18 03:02:26;;;;;;;13.75;8.9;;;;;;;9.2;100;95786.56;;;;
2019/09/18 03:03:27;;;;;;;13.75;8.9;;;;;;;9.2;100;95786.56;;;;
2019/09/18 03:04:40;;;;;;;13.75;8.9;;;;;;;9.2;100;95786.56;;;;
2019/09/18 03:05:41;;;;;;;13.75;8.9;;;;;;;9.2;100;95786.56;;;;
2019/09/18 03:06:43;;;;;;;13.75;8.9;;;;;;;9.2;100;95786.56;;;;
2019/09/18 03:07:44;;;;;;;13.75;8.9;;;;;;;9.2;100;95786.56;;;;
2019/09/18 03:08:45;;;;;;;13.75;8.9;;;;;;;9.2;100;95786.56;;;;
2019/09/18 03:09:46;;;;;;;13.75;8.9;;;;;;;9.2;100;95786.56;;;;
2019/09/18 03:10:47;;;;;;;13.75;8.9;;;;;;;9.2;100;95786.56;;;;
2019/09/18 03:11:48;;;;;;;13.75;8.9;;;;;;;9.2;100;95786.56;;;;
2019/09/18 03:12:49;;;;;;;13.75;8.9;;;;;;;9.2;100;95786.56;;;;
2019/09/18 03:13:51;;;;;;;13.75;8.9;;;;;;;9.2;100;95786.56;;;;
2019/09/18 03:14:52;;;;;;;13.75;8.9;;;;;;;9.2;100;95786.56;;;;
2019/09/18 03:15:53;;;;;;;12.35;8.4;;;;;;;9.03;100;95793.89;;;;
2019/09/18 03:16:54;;;;;;;12.35;8.4;;;;;;;9.03;100;95793.89;;;;
2019/09/18 03:17:55;;;;;;;12.35;8.4;;;;;;;9.03;100;95793.89;;;;
2019/09/18 03:18:56;;;;;;;12.35;8.4;;;;;;;9.03;100;95793.89;;;;
2019/09/18 03:19:58;;;;;;;12.35;8.4;;;;;;;9.03;100;95793.89;;;;
2019/09/18 03:20:59;;;;;;;12.35;8.4;;;;;;;9.03;100;95793.89;;;;
2019/09/18 03:22:05;;;;;;;12.35;8.4;;;;;;;9.03;100;95793.89;;;;
2019/09/18 03:23:06;;;;;;;12.35;8.4;;;;;;;9.03;100;95793.89;;;;
2019/09/18 03:24:07;;;;;;;12.35;8.4;;;;;;;9.03;100;95793.89;;;;
2019/09/18 03:25:09;;;;;;;12.35;8.4;;;;;;;9.03;100;95793.89;;;;
2019/09/18 03:26:11;;;;;;;14.55;8.599999;;;;;;;8.78;99.80957;95793.37;;;;
2019/09/18 03:27:12;;;;;;;14.55;8.599999;;;;;;;8.78;99.80957;95793.37;;;;
2019/09/18 03:28:13;;;;;;;14.55;8.599999;;;;;;;8.78;99.80957;95793.37;;;;
2019/09/18 03:29:14;;;;;;;11;8.4;;;;;;;8.77;100;95795.34;;;;
2019/09/18 03:30:15;;;;;;;11;8.4;;;;;;;8.77;100;95795.34;;;;
2019/09/18 03:31:17;;;;;;;11;8.4;;;;;;;8.77;100;95795.34;;;;
2019/09/18 03:32:19;;;;;;;11;8.4;;;;;;;8.77;100;95795.34;;;;
2019/09/18 03:33:20;;;;;;;11;8.4;;;;;;;8.77;100;95795.34;;;;
2019/09/18 03:34:21;;;;;;;11;8.4;;;;;;;8.77;100;95795.34;;;;
2019/09/18 03:35:22;;;;;;;11;8.4;;;;;;;8.77;100;95795.34;;;;
2019/09/18 03:36:24;;;;;;;11;8.4;;;;;;;8.77;100;95795.34;;;;
2019/09/18 03:37:25;;;;;;;11;8.4;;;;;;;8.77;100;95795.34;;;;
2019/09/18 03:38:26;;;;;;;11;8.4;;;;;;;8.77;100;95795.34;;;;
2019/09/18 03:39:27;;;;;;;12.6;8.4;;;;;;;8.55;100;95802.86;;;;
2019/09/18 03:40:28;;;;;;;12.6;8.4;;;;;;;8.55;100;95802.86;;;;
2019/09/18 03:41:29;;;;;;;12.6;8.4;;;;;;;8.55;100;95802.86;;;;
2019/09/18 03:42:31;;;;;;;12.6;8.4;;;;;;;8.55;100;95802.86;;;;
2019/09/18 03:43:32;;;;;;;12.6;8.4;;;;;;;8.55;100;95802.86;;;;
2019/09/18 03:44:33;;;;;;;12.6;8.4;;;;;;;8.55;100;95802.86;;;;
2019/09/18 03:45:34;;;;;;;12.6;8.4;;;;;;;8.55;100;95802.86;;;;
2019/09/18 03:46:35;;;;;;;12.6;8.4;;;;;;;8.55;100;95802.86;;;;
2019/09/18 03:47:44;;;;;;;12.6;8.4;;;;;;;8.55;100;95802.86;;;;
2019/09/18 03:48:45;;;;;;;12.6;8.4;;;;;;;8.55;100;95802.86;;;;
2019/09/18 03:49:46;;;;;;;12.55;8.7;;;;;;;8.37;100;95813.45;;;;
2019/09/18 03:50:48;;;;;;;12.55;8.7;;;;;;;8.37;100;95813.45;;;;
2019/09/18 03:51:49;;;;;;;12.55;8.7;;;;;;;8.37;100;95813.45;;;;
2019/09/18 03:52:50;;;;;;;12.55;8.7;;;;;;;8.37;100;95813.45;;;;
2019/09/18 03:53:51;;;;;;;12.55;8.7;;;;;;;8.37;100;95813.45;;;;
2019/09/18 03:54:52;;;;;;;12.55;8.7;;;;;;;8.37;100;95813.45;;;;
2019/09/18 03:55:53;;;;;;;12.55;8.7;;;;;;;8.37;100;95813.45;;;;
2019/09/18 03:56:54;;;;;;;12.55;8.7;;;;;;;8.37;100;95813.45;;;;
2019/09/18 03:57:56;;;;;;;12.55;8.7;;;;;;;8.37;100;95813.45;;;;
2019/09/18 03:58:57;;;;;;;12.55;8.7;;;;;;;8.37;100;95813.45;;;;
2019/09/18 03:59:58;;;;;;;12.55;8.7;;;;;;;8.37;100;95813.45;;;;
2019/09/18 04:00:59;;;;;;;11.5;8.85;;;;;;;8.11;99.91992;95811.7;;;;
2019/09/18 04:02:00;;;;;;;11.5;8.85;;;;;;;8.11;99.91992;95811.7;;;;
2019/09/18 04:03:02;;;;;;;15.35;8.849999;;;;;;;8.11;100;95814.39;;;;
2019/09/18 04:04:04;;;;;;;15.35;8.849999;;;;;;;8.11;100;95814.39;;;;
2019/09/18 04:05:05;;;;;;;15.35;8.849999;;;;;;;8.11;100;95814.39;;;;
2019/09/18 04:06:07;;;;;;;15.35;8.849999;;;;;;;8.11;100;95814.39;;;;
2019/09/18 04:07:08;;;;;;;15.35;8.849999;;;;;;;8.11;100;95814.39;;;;
2019/09/18 04:08:10;;;;;;;15.35;8.849999;;;;;;;8.11;100;95814.39;;;;
2019/09/18 04:09:11;;;;;;;15.35;8.849999;;;;;;;8.11;100;95814.39;;;;
2019/09/18 04:10:12;;;;;;;15.35;8.849999;;;;;;;8.11;100;95814.39;;;;
2019/09/18 04:11:14;;;;;;;15.35;8.849999;;;;;;;8.11;100;95814.39;;;;
2019/09/18 04:12:16;;;;;;;15.35;8.849999;;;;;;;8.11;100;95814.39;;;;
2019/09/18 04:13:17;;;;;;;12.55;8.749999;;;;;;;7.9;100;95812.72;;;;
2019/09/18 04:14:18;;;;;;;12.55;8.749999;;;;;;;7.9;100;95812.72;;;;
2019/09/18 04:15:19;;;;;;;12.55;8.749999;;;;;;;7.9;100;95812.72;;;;
2019/09/18 04:16:22;;;;;;;12.55;8.749999;;;;;;;7.9;100;95812.72;;;;
2019/09/18 04:17:23;;;;;;;12.55;8.749999;;;;;;;7.9;100;95812.72;;;;
2019/09/18 04:18:24;;;;;;;12.55;8.749999;;;;;;;7.9;100;95812.72;;;;
2019/09/18 04:19:25;;;;;;;12.55;8.749999;;;;;;;7.9;100;95812.72;;;;
2019/09/18 04:20:26;;;;;;;12.55;8.749999;;;;;;;7.9;100;95812.72;;;;
2019/09/18 04:21:52;;;;;;;12.55;8.749999;;;;;;;7.9;100;95812.72;;;;
2019/09/18 04:22:53;;;;;;;12.55;8.749999;;;;;;;7.9;100;95812.72;;;;
2019/09/18 04:23:54;;;;;;;15.2;9.850001;;;;;;;7.77;100;95815.39;;;;
2019/09/18 04:24:55;;;;;;;15.2;9.850001;;;;;;;7.77;100;95815.39;;;;
2019/09/18 04:25:56;;;;;;;15.2;9.850001;;;;;;;7.77;100;95815.39;;;;
2019/09/18 04:26:57;;;;;;;15.2;9.850001;;;;;;;7.77;100;95815.39;;;;
2019/09/18 04:27:59;;;;;;;15.2;9.850001;;;;;;;7.77;100;95815.39;;;;
2019/09/18 04:29:00;;;;;;;15.2;9.850001;;;;;;;7.77;100;95815.39;;;;
2019/09/18 04:30:03;;;;;;;15.2;9.850001;;;;;;;7.77;100;95815.39;;;;
2019/09/18 04:31:05;;;;;;;15.2;9.850001;;;;;;;7.77;100;95815.39;;;;
2019/09/18 04:32:06;;;;;;;15.2;9.850001;;;;;;;7.77;100;95815.39;;;;
2019/09/18 04:33:07;;;;;;;15.2;9.850001;;;;;;;7.77;100;95815.39;;;;
2019/09/18 04:34:08;;;;;;;15.2;9.850001;;;;;;;7.77;100;95815.39;;;;
2019/09/18 04:35:10;;;;;;;12.6;8.999999;;;;;;;7.61;100;95831.53;;;;
2019/09/18 04:36:14;;;;;;;12.6;8.999999;;;;;;;7.61;100;95831.53;;;;
2019/09/18 04:37:15;;;;;;;12.6;8.999999;;;;;;;7.61;100;95831.53;;;;
2019/09/18 04:38:16;;;;;;;12.6;8.999999;;;;;;;7.61;100;95831.53;;;;
2019/09/18 04:39:17;;;;;;;12.6;8.999999;;;;;;;7.61;100;95831.53;;;;
2019/09/18 04:40:19;;;;;;;12.6;8.999999;;;;;;;7.61;100;95831.53;;;;
2019/09/18 04:41:21;;;;;;;12.6;8.999999;;;;;;;7.61;100;95831.53;;;;
2019/09/18 04:42:23;;;;;;;12.6;8.999999;;;;;;;7.61;100;95831.53;;;;
2019/09/18 04:43:24;;;;;;;12.6;8.999999;;;;;;;7.61;100;95831.53;;;;
2019/09/18 04:44:25;;;;;;;12.6;8.999999;;;;;;;7.61;100;95831.53;;;;
2019/09/18 04:45:26;;;;;;;13.9;9.450001;;;;;;;7.49;100;95841.61;;;;
2019/09/18 04:46:27;;;;;;;13.9;9.450001;;;;;;;7.49;100;95841.61;;;;
2019/09/18 04:47:29;;;;;;;13.9;9.450001;;;;;;;7.49;100;95841.61;;;;
2019/09/18 04:48:30;;;;;;;13.9;9.450001;;;;;;;7.49;100;95841.61;;;;
2019/09/18 04:49:31;;;;;;;13.9;9.450001;;;;;;;7.49;100;95841.61;;;;
2019/09/18 04:50:32;;;;;;;13.9;9.450001;;;;;;;7.49;100;95841.61;;;;
2019/09/18 04:51:33;;;;;;;13.9;9.450001;;;;;;;7.49;100;95841.61;;;;
2019/09/18 04:52:34;;;;;;;13.9;9.450001;;;;;;;7.49;100;95841.61;;;;
2019/09/18 04:53:36;;;;;;;13.9;9.450001;;;;;;;7.49;100;95841.61;;;;
2019/09/18 04:54:37;;;;;;;13.9;9.450001;;;;;;;7.49;100;95841.61;;;;
2019/09/18 04:55:38;;;;;;;13.9;9.15;;;;;;;7.32;100;95843.95;;;;
2019/09/18 04:56:39;;;;;;;13.9;9.15;;;;;;;7.32;100;95843.95;;;;
2019/09/18 04:57:40;;;;;;;13.9;9.15;;;;;;;7.32;100;95843.95;;;;
2019/09/18 04:58:41;;;;;;;13.9;9.15;;;;;;;7.32;100;95843.95;;;;
2019/09/18 04:59:42;;;;;;;13.9;9.15;;;;;;;7.32;100;95843.95;;;;
2019/09/18 05:00:44;;;;;;;13.9;9.15;;;;;;;7.32;100;95843.95;;;;
2019/09/18 05:02:03;;;;;;;13.9;9.15;;;;;;;7.32;100;95843.95;;;;
2019/09/18 05:03:04;;;;;;;13.9;9.15;;;;;;;7.32;100;95843.95;;;;
2019/09/18 05:04:05;;;;;;;13.9;9.15;;;;;;;7.32;100;95843.95;;;;
2019/09/18 05:05:12;;;;;;;13.9;9.15;;;;;;;7.32;100;95843.95;;;;
2019/09/18 05:06:13;;;;;;;13.25;9.049999;;;;;;;7.26;100;95846.51;;;;
2019/09/18 05:07:14;;;;;;;13.25;9.049999;;;;;;;7.26;100;95846.51;;;;
2019/09/18 05:08:16;;;;;;;13.25;9.049999;;;;;;;7.26;100;95846.51;;;;
2019/09/18 05:09:17;;;;;;;13.25;9.049999;;;;;;;7.26;100;95846.51;;;;
2019/09/18 05:10:18;;;;;;;13.25;9.049999;;;;;;;7.26;100;95846.51;;;;
2019/09/18 05:11:20;;;;;;;13.25;9.049999;;;;;;;7.26;100;95846.51;;;;
2019/09/18 05:12:21;;;;;;;13.25;9.049999;;;;;;;7.26;100;95846.51;;;;
2019/09/18 05:13:22;;;;;;;13.25;9.049999;;;;;;;7.26;100;95846.51;;;;
2019/09/18 05:14:24;;;;;;;13.25;9.049999;;;;;;;7.26;100;95846.51;;;;
2019/09/18 05:15:25;;;;;;;13.25;9.049999;;;;;;;7.26;100;95846.51;;;;
2019/09/18 05:16:27;;;;;;;13.25;9.049999;;;;;;;7.26;100;95846.51;;;;
2019/09/18 05:17:30;;;;;;;19.55;9.1;;;;;;;7.2;100;95845.96;;;;
2019/09/18 05:18:55;;;;;;;19.55;9.1;;;;;;;7.2;100;95845.96;;;;
2019/09/18 05:19:59;;;;;;;19.55;9.1;;;;;;;7.2;100;95845.96;;;;
2019/09/18 05:21:01;;;;;;;19.55;9.1;;;;;;;7.2;100;95845.96;;;;
2019/09/18 05:22:02;;;;;;;19.55;9.1;;;;;;;7.2;100;95845.96;;;;
2019/09/18 05:23:04;;;;;;;19.55;9.1;;;;;;;7.2;100;95845.96;;;;
2019/09/18 05:24:05;;;;;;;19.55;9.1;;;;;;;7.2;100;95845.96;;;;
2019/09/18 05:25:07;;;;;;;19.55;9.1;;;;;;;7.2;100;95845.96;;;;
2019/09/18 05:26:09;;;;;;;19.55;9.1;;;;;;;7.2;100;95845.96;;;;
2019/09/18 05:27:11;;;;;;;19.55;9.1;;;;;;;7.2;100;95845.96;;;;
2019/09/18 05:28:12;;;;;;;15.3;9.35;;;;;;;7.27;100;95842.36;;;;
2019/09/18 05:29:13;;;;;;;15.3;9.35;;;;;;;7.27;100;95842.36;;;;
2019/09/18 05:30:14;;;;;;;15.3;9.35;;;;;;;7.27;100;95842.36;;;;
2019/09/18 05:31:16;;;;;;;15.3;9.35;;;;;;;7.27;100;95842.36;;;;
2019/09/18 05:32:28;;;;;;;15.3;9.35;;;;;;;7.27;100;95842.36;;;;
2019/09/18 05:33:29;;;;;;;15.3;9.35;;;;;;;7.27;100;95842.36;;;;
2019/09/18 05:34:30;;;;;;;15.3;9.35;;;;;;;7.27;100;95842.36;;;;
2019/09/18 05:35:31;;;;;;;15.3;9.35;;;;;;;7.27;100;95842.36;;;;
2019/09/18 05:36:32;;;;;;;15.3;9.35;;;;;;;7.27;100;95842.36;;;;
2019/09/18 05:37:34;;;;;;;15.3;9.35;;;;;;;7.27;100;95842.36;;;;
2019/09/18 05:38:35;;;;;;;14.3;8.749998;;;;;;;7.35;99.86328;95836.74;;;;
2019/09/18 05:39:36;;;;;;;14.3;8.749998;;;;;;;7.35;99.86328;95836.74;;;;
2019/09/18 05:40:37;;;;;;;14.3;8.749998;;;;;;;7.35;99.86328;95836.74;;;;
2019/09/18 05:41:38;;;;;;;14.3;8.749998;;;;;;;7.35;99.86328;95836.74;;;;
2019/09/18 05:42:41;;;;;;;14.3;8.749998;;;;;;;7.35;99.86328;95836.74;;;;
2019/09/18 05:43:42;;;;;;;14.3;8.749998;;;;;;;7.35;99.86328;95836.74;;;;
2019/09/18 05:44:43;;;;;;;14.3;8.749998;;;;;;;7.35;99.86328;95836.74;;;;
2019/09/18 05:45:44;;;;;;;14.3;8.749998;;;;;;;7.35;99.86328;95836.74;;;;
2019/09/18 05:46:45;;;;;;;14.3;8.749998;;;;;;;7.35;99.86328;95836.74;;;;
2019/09/18 05:47:47;;;;;;;14.3;8.749998;;;;;;;7.35;99.86328;95836.74;;;;
2019/09/18 05:48:48;;;;;;;14.1;7.349999;;;;;;;7.61;99.87988;95843.08;;;;
2019/09/18 05:49:49;;;;;;;14.1;7.349999;;;;;;;7.61;99.87988;95843.08;;;;
2019/09/18 05:50:50;;;;;;;14.1;7.349999;;;;;;;7.61;99.87988;95843.08;;;;
2019/09/18 05:51:51;;;;;;;14.1;7.349999;;;;;;;7.61;99.87988;95843.08;;;;
2019/09/18 05:52:53;;;;;;;14.1;7.349999;;;;;;;7.61;99.87988;95843.08;;;;
2019/09/18 05:53:54;;;;;;;14.1;7.349999;;;;;;;7.61;99.87988;95843.08;;;;
2019/09/18 05:54:55;;;;;;;14.1;7.349999;;;;;;;7.61;99.87988;95843.08;;;;
2019/09/18 05:55:57;;;;;;;14.1;7.349999;;;;;;;7.61;99.87988;95843.08;;;;
2019/09/18 05:56:58;;;;;;;14.1;7.349999;;;;;;;7.61;99.87988;95843.08;;;;
2019/09/18 05:57:59;;;;;;;14.1;7.349999;;;;;;;7.61;99.87988;95843.08;;;;
2019/09/18 05:59:00;;;;;;;14.1;7.349999;;;;;;;7.61;99.87988;95843.08;;;;
2019/09/18 06:00:02;;;;;;;8.75;5.55;;;;;;;7.86;99.5791;95857.59;;;;
2019/09/18 06:01:04;;;;;;;8.75;5.55;;;;;;;7.86;99.5791;95857.59;;;;
2019/09/18 06:02:24;;;;;;;8.75;5.55;;;;;;;7.86;99.5791;95857.59;;;;
2019/09/18 06:03:26;;;;;;;8.75;5.55;;;;;;;7.86;99.5791;95857.59;;;;
2019/09/18 06:04:28;;;;;;;8.75;5.55;;;;;;;7.86;99.5791;95857.59;;;;
2019/09/18 06:05:30;;;;;;;8.75;5.55;;;;;;;7.86;99.5791;95857.59;;;;
2019/09/18 06:06:31;;;;;;;8.75;5.55;;;;;;;7.86;99.5791;95857.59;;;;
2019/09/18 06:07:32;;;;;;;8.75;5.55;;;;;;;7.86;99.5791;95857.59;;;;
2019/09/18 06:08:35;;;;;;;8.75;5.55;;;;;;;7.86;99.5791;95857.59;;;;
2019/09/18 06:09:37;;;;;;;8.75;5.55;;;;;;;7.86;99.5791;95857.59;;;;
2019/09/18 06:10:38;;;;;;;7.3;4.75;;;;;;;8.3;99.22461;95870.48;;;;
2019/09/18 06:11:40;;;;;;;7.3;4.75;;;;;;;8.3;99.22461;95870.48;;;;
2019/09/18 06:12:42;;;;;;;7.3;4.75;;;;;;;8.3;99.22461;95870.48;;;;
2019/09/18 06:13:43;;;;;;;7.3;4.75;;;;;;;8.3;99.22461;95870.48;;;;
2019/09/18 06:14:45;;;;;;;7.3;4.75;;;;;;;8.3;99.22461;95870.48;;;;
2019/09/18 06:15:46;;;;;;;7.3;4.75;;;;;;;8.3;99.22461;95870.48;;;;
2019/09/18 06:16:56;;;;;;;7.3;4.75;;;;;;;8.3;99.22461;95870.48;;;;